Time;durP1;ratioP1;P1;durP2;ratioP2;P2;SDS_P1;SDS_P2;PMS_P1;PMS_P2;Temp;Humidity;BMP_temperature;BMP_pressure;BME280_temperature;BME280_humidity;BME280_pressure;Samples;Min_cycle;Max_cycle;Signal;HPM_P1;HPM_P2
2022/06/15 00:00:11;;;;;;;;;;;;;;;22.68;34.45;99589.19;4503838;31;35898;-87
2022/06/15 00:02:39;;;;;;;;;;;;;;;22.98;34.07;99588.28;4499537;31;33896;-86
2022/06/15 00:05:06;;;;;;;;;;;;;;;23.14;33.90;99580.72;4499485;31;34307;-86
2022/06/15 00:07:33;;;;;;;;;;;;;;;23.00;33.81;99580.31;4510443;31;34661;-87
2022/06/15 00:10:01;;;;;;;;;;;;;;;23.37;33.44;99581.75;4505247;31;34946;-83
2022/06/15 00:12:28;;;;;;;;;;;;;;;23.40;33.38;99584.31;4499506;31;35196;-85
2022/06/15 00:14:55;;;;;;;;;;;;;;;23.59;33.27;99584.56;4499788;31;34034;-86
2022/06/15 00:17:23;;;;;;;;;;;;;;;23.72;33.31;99589.44;4509307;31;34373;-85
2022/06/15 00:19:50;;;;;;;;;;;;;;;24.00;33.11;99585.81;4506778;31;34118;-87
2022/06/15 00:22:17;;;;;;;;;;;;;;;23.73;34.14;99585.88;4499434;31;33926;-86
2022/06/15 00:24:45;;;;;;;;;;;;;;;24.14;33.13;99587.97;4502493;31;33190;-86
2022/06/15 00:27:12;;;;;;;;;;;;;;;24.11;33.25;99586.31;4515364;31;34185;-86
2022/06/15 00:29:40;;;;;;;;;;;;;;;24.17;32.80;99578.16;4507930;31;34252;-84
2022/06/15 00:32:08;;;;;;;;;;;;;;;24.24;32.94;99578.75;4499026;31;35003;-85
2022/06/15 00:34:35;;;;;;;;;;;;;;;24.37;32.75;99584.50;4501581;31;33220;-87
2022/06/15 00:37:03;;;;;;;;;;;;;;;24.48;32.28;99577.91;4514957;31;34682;-87
2022/06/15 00:39:32;;;;;;;;;;;;;;;24.40;32.33;99576.47;4508722;31;35238;-87
2022/06/15 00:42:00;;;;;;;;;;;;;;;24.32;32.54;99581.13;4499162;31;34866;-86
2022/06/15 00:44:31;;;;;;;;;;;;;;;24.33;32.59;99580.22;4500451;31;33205;-84
2022/06/15 00:47:00;;;;;;;;;;;;;;;24.23;32.65;99574.37;4507122;31;34287;-84
2022/06/15 00:49:36;;;;;;;;;;;;;;;24.11;32.79;99577.50;4514786;31;34740;-86
2022/06/15 00:52:08;;;;;;;;;;;;;;;24.06;33.00;99572.38;4513185;31;34029;-84
2022/06/15 00:54:36;;;;;;;;;;;;;;;24.00;33.04;99576.09;4488353;31;33453;-84
2022/06/15 00:57:04;;;;;;;;;;;;;;;23.83;33.17;99569.66;4498848;31;33790;-87
2022/06/15 00:59:38;;;;;;;;;;;;;;;23.93;32.75;99573.72;4497588;31;34093;-87
2022/06/15 01:02:06;;;;;;;;;;;;;;;23.98;32.80;99566.44;4496671;31;34493;-87
2022/06/15 01:04:37;;;;;;;;;;;;;;;23.93;32.79;99579.00;4511944;31;33288;-86
2022/06/15 01:07:10;;;;;;;;;;;;;;;23.87;32.99;99581.87;4511245;31;35037;-84
2022/06/15 01:09:42;;;;;;;;;;;;;;;23.79;33.00;99587.44;4514774;31;35216;-84
2022/06/15 01:12:12;;;;;;;;;;;;;;;23.69;33.20;99589.53;4486258;31;34684;-84
2022/06/15 01:14:43;;;;;;;;;;;;;;;23.77;33.05;99590.13;4512681;31;34338;-85
2022/06/15 01:17:30;;;;;;;;;;;;;;;23.37;33.69;99597.63;4504472;31;34245;-88
2022/06/15 01:20:10;;;;;;;;;;;;;;;23.51;33.75;99595.41;4487968;31;34416;-85
2022/06/15 01:22:56;;;;;;;;;;;;;;;23.52;33.51;99598.03;4498878;31;33737;-84
2022/06/15 01:25:35;;;;;;;;;;;;;;;23.46;33.70;99602.66;4514473;31;33355;-87
2022/06/15 01:28:05;;;;;;;;;;;;;;;23.23;33.98;99598.09;4514784;31;34288;-85
2022/06/15 01:30:36;;;;;;;;;;;;;;;23.18;34.14;99606.16;4507628;31;35235;-86
2022/06/15 01:33:23;;;;;;;;;;;;;;;23.26;33.92;99598.88;4499703;31;34900;-86
2022/06/15 01:36:10;;;;;;;;;;;;;;;23.23;33.86;99598.09;4514504;31;34257;-87
2022/06/15 01:38:40;;;;;;;;;;;;;;;23.25;33.63;99596.25;4514618;31;34985;-86
2022/06/15 01:41:13;;;;;;;;;;;;;;;23.16;33.61;99608.00;4503492;31;35553;-83
2022/06/15 01:43:41;;;;;;;;;;;;;;;23.14;33.44;99598.38;4492761;31;33737;-85
2022/06/15 01:46:09;;;;;;;;;;;;;;;22.99;33.51;99602.38;4484619;31;33323;-83
2022/06/15 01:48:36;;;;;;;;;;;;;;;23.01;33.14;99601.41;4484192;31;34035;-86
2022/06/15 01:51:10;;;;;;;;;;;;;;;23.11;32.79;99594.06;4498142;31;34469;-84
2022/06/15 01:53:39;;;;;;;;;;;;;;;23.02;33.02;99607.56;4493530;31;34089;-84
2022/06/15 01:56:18;;;;;;;;;;;;;;;22.79;33.57;99597.66;4484145;31;33765;-85
2022/06/15 01:58:47;;;;;;;;;;;;;;;22.90;33.40;99605.28;4493330;31;35049;-85
2022/06/15 02:01:19;;;;;;;;;;;;;;;22.93;33.32;99599.94;4496851;31;34351;-84
2022/06/15 02:03:47;;;;;;;;;;;;;;;22.92;33.55;99608.75;4492628;31;33880;-84
2022/06/15 02:06:17;;;;;;;;;;;;;;;23.05;33.44;99605.69;4500304;31;33078;-86
2022/06/15 02:08:49;;;;;;;;;;;;;;;23.10;33.01;99608.19;4496131;31;34178;-86
2022/06/15 02:11:20;;;;;;;;;;;;;;;23.19;32.88;99599.97;4499073;31;34291;-85
2022/06/15 02:13:53;;;;;;;;;;;;;;;23.10;32.99;99608.19;4500560;31;34076;-83
2022/06/15 02:16:21;;;;;;;;;;;;;;;23.00;33.15;99598.84;4498692;31;34178;-83
2022/06/15 02:18:49;;;;;;;;;;;;;;;22.92;33.33;99604.34;4500150;31;33827;-84
2022/06/15 02:21:17;;;;;;;;;;;;;;;22.73;33.75;99600.47;4486285;31;33943;-85
2022/06/15 02:23:46;;;;;;;;;;;;;;;22.74;33.82;99600.44;4500645;31;34020;-86
2022/06/15 02:26:14;;;;;;;;;;;;;;;22.88;33.56;99607.09;4499365;31;33415;-84
2022/06/15 02:28:43;;;;;;;;;;;;;;;23.06;33.21;99601.25;4486112;31;34207;-85
2022/06/15 02:31:10;;;;;;;;;;;;;;;22.89;33.65;99600.91;4484286;32;34331;-86
2022/06/15 02:33:39;;;;;;;;;;;;;;;22.70;33.90;99604.09;4495046;31;33855;-85
2022/06/15 02:36:06;;;;;;;;;;;;;;;22.75;33.82;99599.53;4485667;31;32544;-85
2022/06/15 02:38:35;;;;;;;;;;;;;;;22.72;33.64;99602.25;4500271;31;34001;-83
2022/06/15 02:41:02;;;;;;;;;;;;;;;22.82;33.58;99597.56;4507847;31;35385;-84
2022/06/15 02:43:30;;;;;;;;;;;;;;;22.62;33.97;99599.97;4515753;31;34169;-84
2022/06/15 02:45:58;;;;;;;;;;;;;;;22.16;34.71;99607.41;4498673;31;34281;-87
2022/06/15 02:48:32;;;;;;;;;;;;;;;22.19;34.63;99607.31;4498537;31;33483;-87
2022/06/15 02:51:02;;;;;;;;;;;;;;;22.27;34.49;99604.47;4494334;31;33877;-84
2022/06/15 02:53:30;;;;;;;;;;;;;;;22.40;34.29;99594.44;4485792;31;33549;-88
2022/06/15 02:55:58;;;;;;;;;;;;;;;22.46;34.13;99605.66;4500037;31;33321;-86
2022/06/15 02:58:27;;;;;;;;;;;;;;;22.44;34.43;99606.63;4498746;31;34370;-85
2022/06/15 03:00:55;;;;;;;;;;;;;;;22.37;34.67;99605.94;4500182;31;34006;-84
2022/06/15 03:03:25;;;;;;;;;;;;;;;22.37;34.71;99611.22;4500103;31;34082;-87
2022/06/15 03:05:54;;;;;;;;;;;;;;;22.52;34.09;99610.78;4499662;31;33469;-86
2022/06/15 03:08:22;;;;;;;;;;;;;;;22.09;35.17;99611.97;4500004;31;34765;-84
2022/06/15 03:10:50;;;;;;;;;;;;;;;22.37;34.62;99611.22;4498504;31;33934;-86
2022/06/15 03:13:21;;;;;;;;;;;;;;;22.51;34.20;99613.47;4491761;31;32416;-83
2022/06/15 03:15:49;;;;;;;;;;;;;;;22.45;34.27;99617.16;4499362;31;33374;-86
2022/06/15 03:18:17;;;;;;;;;;;;;;;22.39;34.38;99617.34;4499437;31;34371;-87
2022/06/15 03:20:46;;;;;;;;;;;;;;;22.55;34.17;99615.97;4499963;31;32787;-83
2022/06/15 03:23:13;;;;;;;;;;;;;;;22.53;34.25;99619.56;4500178;31;33762;-84
2022/06/15 03:25:41;;;;;;;;;;;;;;;22.44;34.36;99617.22;4500027;31;34305;-85
2022/06/15 03:28:10;;;;;;;;;;;;;;;22.52;34.11;99624.00;4500253;31;33958;-84
2022/06/15 03:30:38;;;;;;;;;;;;;;;22.45;33.75;99624.22;4484006;32;32948;-84
2022/06/15 03:33:06;;;;;;;;;;;;;;;22.76;33.54;99619.75;4484000;32;34333;-85
2022/06/15 03:35:34;;;;;;;;;;;;;;;22.54;33.97;99616.00;4485683;31;33798;-87
2022/06/15 03:38:03;;;;;;;;;;;;;;;22.55;33.98;99618.63;4499815;31;34209;-84
2022/06/15 03:40:30;;;;;;;;;;;;;;;22.53;34.15;99616.94;4494940;31;34212;-83
2022/06/15 03:42:58;;;;;;;;;;;;;;;22.71;34.16;99616.41;4499906;31;33803;-87
2022/06/15 03:45:26;;;;;;;;;;;;;;;22.78;33.81;99611.81;4499831;31;34200;-86
2022/06/15 03:47:57;;;;;;;;;;;;;;;22.94;33.97;99621.03;4499418;31;34222;-86
2022/06/15 03:50:25;;;;;;;;;;;;;;;23.35;33.69;99620.66;4499860;31;34223;-87
2022/06/15 03:52:54;;;;;;;;;;;;;;;23.65;32.89;99616.12;4499670;31;34083;-84
2022/06/15 03:55:28;;;;;;;;;;;;;;;24.02;32.39;99618.44;4499739;31;33183;-86
2022/06/15 03:57:56;;;;;;;;;;;;;;;24.32;32.44;99618.22;4499417;31;34133;-86
2022/06/15 04:00:23;;;;;;;;;;;;;;;24.63;31.65;99618.88;4498819;31;34152;-87
2022/06/15 04:02:52;;;;;;;;;;;;;;;24.95;31.66;99619.41;4498306;31;34720;-85
2022/06/15 04:05:22;;;;;;;;;;;;;;;25.30;31.23;99626.00;4499832;31;33793;-84
2022/06/15 04:10:39;;;;;;;;;;;;;;;25.98;30.43;99623.22;4499646;31;33993;-87
2022/06/15 04:13:07;;;;;;;;;;;;;;;26.24;29.84;99616.78;4499718;31;35072;-86
2022/06/15 04:15:34;;;;;;;;;;;;;;;26.41;29.67;99611.59;4499655;31;34263;-86
2022/06/15 04:18:02;;;;;;;;;;;;;;;26.75;29.33;99613.59;4498223;31;34393;-84
2022/06/15 04:20:32;;;;;;;;;;;;;;;27.05;28.90;99615.72;4505036;31;33957;-88
2022/06/15 04:23:07;;;;;;;;;;;;;;;27.34;28.60;99614.34;4515275;31;34282;-83
2022/06/15 04:25:39;;;;;;;;;;;;;;;27.47;28.43;99614.63;4515649;31;33912;-87
2022/06/15 04:28:06;;;;;;;;;;;;;;;27.54;28.50;99616.03;4508172;31;34756;-85
2022/06/15 04:30:34;;;;;;;;;;;;;;;28.17;28.01;99618.19;4493643;31;34522;-84
2022/06/15 04:33:01;;;;;;;;;;;;;;;28.44;27.38;99619.41;4506282;31;34242;-86
2022/06/15 04:35:29;;;;;;;;;;;;;;;27.91;27.98;99625.72;4500837;31;33780;-86
2022/06/15 04:37:57;;;;;;;;;;;;;;;28.70;27.64;99615.34;4499222;31;34339;-84
2022/06/15 04:40:24;;;;;;;;;;;;;;;28.98;27.26;99614.72;4499284;31;34149;-85
2022/06/15 04:42:52;;;;;;;;;;;;;;;29.13;27.12;99610.31;4498997;31;34135;-83
2022/06/15 04:45:19;;;;;;;;;;;;;;;28.88;27.70;99612.63;4499292;31;33026;-87
2022/06/15 04:47:50;;;;;;;;;;;;;;;28.99;27.15;99619.09;4497214;31;34352;-84
2022/06/15 04:50:17;;;;;;;;;;;;;;;29.06;27.32;99617.81;4488243;31;35180;-82
2022/06/15 04:52:46;;;;;;;;;;;;;;;29.59;26.86;99613.06;4498203;31;34199;-82
2022/06/15 04:55:15;;;;;;;;;;;;;;;29.68;26.90;99619.66;4499202;31;33112;-88
2022/06/15 04:57:43;;;;;;;;;;;;;;;29.06;27.49;99620.50;4498155;31;35150;-82
2022/06/15 05:00:15;;;;;;;;;;;;;;;29.86;26.68;99626.59;4499066;31;35365;-85
2022/06/15 05:02:45;;;;;;;;;;;;;;;29.87;26.69;99620.28;4498701;31;34912;-83
2022/06/15 05:05:13;;;;;;;;;;;;;;;29.83;27.14;99624.09;4490640;31;34087;-82
2022/06/15 05:07:41;;;;;;;;;;;;;;;29.63;27.76;99627.09;4498837;31;34195;-83
2022/06/15 05:10:11;;;;;;;;;;;;;;;29.95;27.05;99627.84;4497992;31;34783;-87
2022/06/15 05:12:39;;;;;;;;;;;;;;;29.57;27.87;99634.50;4493682;31;35143;-86
2022/06/15 05:15:07;;;;;;;;;;;;;;;28.62;27.99;99629.09;4498888;31;33399;-85
2022/06/15 05:17:34;;;;;;;;;;;;;;;27.84;28.67;99629.63;4499096;31;34474;-87
2022/06/15 05:20:02;;;;;;;;;;;;;;;28.64;28.13;99630.81;4498877;31;34239;-84
2022/06/15 05:22:29;;;;;;;;;;;;;;;27.77;27.33;99628.22;4498463;31;34517;-84
2022/06/15 05:25:00;;;;;;;;;;;;;;;29.83;27.13;99631.25;4504229;31;33905;-84
2022/06/15 05:27:27;;;;;;;;;;;;;;;29.25;25.87;99630.13;4512806;31;33666;-86
2022/06/15 05:29:55;;;;;;;;;;;;;;;29.40;25.64;99626.59;4501678;31;35437;-84
2022/06/15 05:32:22;;;;;;;;;;;;;;;29.56;25.97;99631.91;4491956;31;33591;-85
2022/06/15 05:34:51;;;;;;;;;;;;;;;29.30;26.00;99636.06;4506056;31;33785;-85
2022/06/15 05:37:18;;;;;;;;;;;;;;;29.33;24.78;99631.41;4513073;31;33273;-85
2022/06/15 05:39:46;;;;;;;;;;;;;;;27.61;27.30;99628.97;4495571;31;33680;-88
2022/06/15 05:42:13;;;;;;;;;;;;;;;27.80;26.74;99630.75;4498372;31;34441;-85
2022/06/15 05:44:48;;;;;;;;;;;;;;;27.52;26.84;99639.22;4498761;31;33307;-86
2022/06/15 05:47:16;;;;;;;;;;;;;;;27.56;27.35;99641.66;4498912;31;34444;-86
2022/06/15 05:49:43;;;;;;;;;;;;;;;28.00;26.80;99637.75;4498411;31;33719;-85
2022/06/15 05:52:11;;;;;;;;;;;;;;;27.02;27.21;99640.69;4497517;31;33845;-85
2022/06/15 05:54:39;;;;;;;;;;;;;;;27.25;26.84;99641.44;4497864;31;33367;-84
2022/06/15 05:57:15;;;;;;;;;;;;;;;27.78;26.81;99645.97;4496964;31;35005;-85
2022/06/15 05:59:45;;;;;;;;;;;;;;;27.03;26.38;99645.09;4491098;31;34300;-86
2022/06/15 06:02:13;;;;;;;;;;;;;;;26.65;28.14;99647.72;4498053;31;35261;-85
2022/06/15 06:04:40;;;;;;;;;;;;;;;27.70;26.61;99638.31;4497807;31;33683;-86
2022/06/15 06:07:15;;;;;;;;;;;;;;;28.26;26.07;99639.03;4498210;31;34042;-87
2022/06/15 06:09:43;;;;;;;;;;;;;;;26.74;27.15;99649.09;4497639;31;34309;-85
2022/06/15 06:12:10;;;;;;;;;;;;;;;27.93;26.38;99650.50;4498348;31;34165;-84
2022/06/15 06:14:38;;;;;;;;;;;;;;;26.84;28.17;99650.41;4498189;31;33466;-86
2022/06/15 06:17:05;;;;;;;;;;;;;;;26.46;27.48;99656.59;4498087;31;34319;-86
2022/06/15 06:19:33;;;;;;;;;;;;;;;26.76;27.66;99660.53;4497710;31;33894;-86
2022/06/15 06:22:00;;;;;;;;;;;;;;;26.68;28.53;99658.22;4497987;31;33747;-87
2022/06/15 06:24:28;;;;;;;;;;;;;;;26.87;27.79;99654.72;4497951;31;33291;-86
2022/06/15 06:26:57;;;;;;;;;;;;;;;27.23;27.38;99664.59;4497981;31;33737;-84
2022/06/15 06:29:24;;;;;;;;;;;;;;;27.57;25.21;99659.34;4497454;31;34472;-84
2022/06/15 06:31:51;;;;;;;;;;;;;;;27.30;26.28;99655.38;4496781;31;33817;-86
2022/06/15 06:34:18;;;;;;;;;;;;;;;28.21;26.87;99654.41;4498050;31;32922;-84
2022/06/15 06:36:46;;;;;;;;;;;;;;;28.41;25.07;99651.56;4498013;31;33768;-87
2022/06/15 06:39:15;;;;;;;;;;;;;;;28.67;25.61;99660.00;4497412;31;35161;-86
2022/06/15 06:41:42;;;;;;;;;;;;;;;29.12;24.06;99653.13;4494916;31;34932;-86
2022/06/15 06:44:10;;;;;;;;;;;;;;;29.09;25.16;99659.47;4496636;31;33384;-84
2022/06/15 06:46:40;;;;;;;;;;;;;;;29.23;23.64;99661.41;4497617;31;35086;-84
2022/06/15 06:49:08;;;;;;;;;;;;;;;29.28;23.49;99659.31;4497599;31;34838;-84
2022/06/15 06:51:35;;;;;;;;;;;;;;;28.56;24.19;99656.13;4496883;31;35285;-85
2022/06/15 06:54:03;;;;;;;;;;;;;;;28.99;23.14;99658.28;4499524;31;33797;-85
2022/06/15 06:56:30;;;;;;;;;;;;;;;28.26;24.65;99663.03;4499913;31;34241;-85
2022/06/15 06:58:58;;;;;;;;;;;;;;;28.05;24.70;99665.87;4499934;31;34727;-86
2022/06/15 07:01:25;;;;;;;;;;;;;;;26.44;26.05;99664.59;4509098;31;34823;-84
2022/06/15 07:03:52;;;;;;;;;;;;;;;26.49;26.14;99667.13;4514128;31;32742;-84
2022/06/15 07:06:20;;;;;;;;;;;;;;;25.82;26.74;99665.53;4515468;31;33737;-85
2022/06/15 07:08:48;;;;;;;;;;;;;;;27.26;26.34;99667.13;4505681;31;34697;-81
2022/06/15 07:11:20;;;;;;;;;;;;;;;27.91;24.99;99668.38;4505436;31;34070;-85
2022/06/15 07:13:48;;;;;;;;;;;;;;;28.63;24.78;99669.97;4499894;31;33065;-83
2022/06/15 07:16:17;;;;;;;;;;;;;;;28.36;25.36;99680.28;4494894;31;34921;-83
2022/06/15 07:18:46;;;;;;;;;;;;;;;28.36;24.46;99672.28;4507259;31;34455;-84
2022/06/15 07:21:14;;;;;;;;;;;;;;;27.78;25.14;99672.59;4499497;31;34033;-85
2022/06/15 07:23:42;;;;;;;;;;;;;;;28.30;25.84;99677.94;4499571;31;33012;-86
2022/06/15 07:26:11;;;;;;;;;;;;;;;28.74;24.05;99664.06;4499882;31;34305;-84
2022/06/15 07:28:38;;;;;;;;;;;;;;;28.90;25.49;99675.63;4499634;31;35324;-83
2022/06/15 07:31:06;;;;;;;;;;;;;;;28.97;24.55;99666.34;4499444;31;34107;-82
2022/06/15 07:33:34;;;;;;;;;;;;;;;28.39;24.17;99673.97;4499794;31;34271;-84
2022/06/15 07:36:01;;;;;;;;;;;;;;;29.38;23.57;99671.22;4498591;31;33936;-86
2022/06/15 07:38:29;;;;;;;;;;;;;;;28.10;24.74;99682.47;4499419;31;33510;-83
2022/06/15 07:41:01;;;;;;;;;;;;;;;28.50;24.73;99672.44;4497545;31;35226;-84
2022/06/15 07:43:30;;;;;;;;;;;;;;;29.51;23.22;99666.91;4499051;31;33350;-85
2022/06/15 07:45:57;;;;;;;;;;;;;;;28.18;25.71;99665.22;4498329;31;33907;-84
2022/06/15 07:51:38;;;;;;;;;;;;;;;29.72;24.25;99664.81;4501633;31;34068;-85
2022/06/15 07:54:08;;;;;;;;;;;;;;;29.09;24.12;99655.03;4497273;31;32646;-87
2022/06/15 07:56:37;;;;;;;;;;;;;;;28.49;24.10;99661.84;4498596;31;34777;-85
2022/06/15 07:59:04;;;;;;;;;;;;;;;28.60;24.74;99663.03;4493224;31;33895;-85
2022/06/15 08:01:32;;;;;;;;;;;;;;;29.97;22.43;99652.69;4485253;31;34162;-86
2022/06/15 08:04:00;;;;;;;;;;;;;;;30.24;22.44;99660.91;4484763;31;33323;-86
2022/06/15 08:06:28;;;;;;;;;;;;;;;30.38;22.01;99652.88;4485053;31;35004;-85
2022/06/15 08:08:55;;;;;;;;;;;;;;;31.11;21.79;99647.44;4488829;31;34122;-85
2022/06/15 08:11:22;;;;;;;;;;;;;;;28.58;23.14;99650.69;4500221;31;34895;-85
2022/06/15 08:13:50;;;;;;;;;;;;;;;28.35;23.96;99660.75;4498286;31;34129;-84
2022/06/15 08:16:17;;;;;;;;;;;;;;;28.96;24.37;99661.94;4499337;31;34183;-85
2022/06/15 08:18:47;;;;;;;;;;;;;;;28.43;24.02;99657.72;4499191;31;34738;-84
2022/06/15 08:21:23;;;;;;;;;;;;;;;29.13;25.11;99646.81;4482779;31;34449;-81
2022/06/15 08:23:51;;;;;;;;;;;;;;;29.43;23.59;99657.59;4499414;31;33413;-87
2022/06/15 08:26:19;;;;;;;;;;;;;;;28.42;23.99;99656.00;4498036;31;33641;-87
2022/06/15 08:28:48;;;;;;;;;;;;;;;28.35;23.00;99651.88;4498116;31;35213;-87
2022/06/15 08:31:16;;;;;;;;;;;;;;;28.11;23.29;99660.22;4499249;31;34383;-86
2022/06/15 08:33:43;;;;;;;;;;;;;;;28.88;23.92;99655.31;4499554;31;33616;-85
2022/06/15 08:36:18;;;;;;;;;;;;;;;28.49;23.62;99654.72;4505743;31;34880;-85
2022/06/15 08:38:45;;;;;;;;;;;;;;;28.83;23.78;99655.56;4499154;31;34196;-84
2022/06/15 08:41:18;;;;;;;;;;;;;;;28.59;22.84;99657.75;4496546;31;34099;-86
2022/06/15 08:44:05;;;;;;;;;;;;;;;29.59;22.70;99658.47;4497964;31;33082;-85
2022/06/15 08:46:41;;;;;;;;;;;;;;;27.61;24.36;99666.25;4499408;31;34191;-85
2022/06/15 08:49:15;;;;;;;;;;;;;;;28.73;23.92;99657.87;4498965;31;34261;-86
2022/06/15 08:51:44;;;;;;;;;;;;;;;30.34;22.79;99646.00;4499016;31;34579;-84
2022/06/15 08:54:18;;;;;;;;;;;;;;;29.39;23.51;99653.38;4499069;31;33219;-84
2022/06/15 08:56:49;;;;;;;;;;;;;;;29.50;22.26;99642.94;4489575;31;34113;-85
2022/06/15 08:59:32;;;;;;;;;;;;;;;29.77;23.04;99651.19;4484840;31;34175;-86
2022/06/15 09:02:12;;;;;;;;;;;;;;;29.16;23.17;99644.84;4496937;31;34943;-84
2022/06/15 09:04:44;;;;;;;;;;;;;;;29.55;22.37;99652.41;4498627;31;33264;-83
2022/06/15 09:07:30;;;;;;;;;;;;;;;30.61;20.97;99650.59;4487066;31;35094;-84
2022/06/15 09:10:06;;;;;;;;;;;;;;;28.78;22.60;99652.28;4484742;31;34200;-82
2022/06/15 09:12:59;;;;;;;;;;;;;;;30.01;23.04;99652.41;4484913;31;34017;-83
2022/06/15 09:15:45;;;;;;;;;;;;;;;30.19;22.38;99652.28;4498404;31;32987;-82
2022/06/15 09:18:15;;;;;;;;;;;;;;;30.04;21.56;99652.25;4497640;31;34187;-83
2022/06/15 09:20:47;;;;;;;;;;;;;;;30.28;22.22;99649.06;4488886;31;35295;-83
2022/06/15 09:23:17;;;;;;;;;;;;;;;30.36;22.11;99636.06;4498462;31;34343;-83
2022/06/15 09:25:49;;;;;;;;;;;;;;;29.14;22.88;99646.75;4497387;31;33725;-82
2022/06/15 09:28:27;;;;;;;;;;;;;;;27.65;24.65;99635.87;4497599;31;33639;-82
2022/06/15 09:30:56;;;;;;;;;;;;;;;28.31;23.69;99648.53;4481763;31;35330;-83
2022/06/15 09:33:32;;;;;;;;;;;;;;;29.71;23.33;99640.88;4496059;31;34222;-82
2022/06/15 09:36:04;;;;;;;;;;;;;;;30.06;22.81;99642.28;4505123;31;34200;-80
2022/06/15 09:38:31;;;;;;;;;;;;;;;27.47;24.77;99639.47;4513683;31;34560;-81
2022/06/15 09:41:02;;;;;;;;;;;;;;;27.59;24.29;99633.53;4509639;31;34528;-82
2022/06/15 09:43:33;;;;;;;;;;;;;;;28.48;23.68;99636.13;4489247;31;34294;-83
2022/06/15 09:46:21;;;;;;;;;;;;;;;29.06;23.43;99636.50;4485991;31;34149;-80
2022/06/15 09:48:51;;;;;;;;;;;;;;;28.60;23.03;99633.69;4482417;32;34992;-80
2022/06/15 09:51:31;;;;;;;;;;;;;;;27.41;24.55;99637.94;4490543;31;35272;-80
2022/06/15 09:54:11;;;;;;;;;;;;;;;28.78;23.63;99631.78;4481264;31;33850;-81
2022/06/15 09:56:40;;;;;;;;;;;;;;;29.69;22.93;99632.91;4502411;31;33878;-82
2022/06/15 09:59:12;;;;;;;;;;;;;;;29.78;22.64;99635.06;4497384;31;34115;-82
2022/06/15 10:01:42;;;;;;;;;;;;;;;28.49;23.70;99629.84;4497534;31;34250;-82
2022/06/15 10:04:11;;;;;;;;;;;;;;;28.04;24.70;99634.81;4498356;31;34500;-81
2022/06/15 10:07:09;;;;;;;;;;;;;;;28.00;23.55;99630.59;4470728;31;34261;-83
2022/06/15 10:09:38;;;;;;;;;;;;;;;28.40;22.91;99628.53;4481281;32;34264;-80
2022/06/15 10:15:12;;;;;;;;;;;;;;;29.32;23.18;99615.47;4499584;31;34991;-81
2022/06/15 10:17:40;;;;;;;;;;;;;;;29.61;23.02;99607.63;4488665;31;33106;-83
2022/06/15 10:20:26;;;;;;;;;;;;;;;30.18;22.45;99605.09;4504020;31;33988;-81
2022/06/15 10:22:54;;;;;;;;;;;;;;;29.58;22.51;99609.50;4509214;31;34464;-83
2022/06/15 10:25:21;;;;;;;;;;;;;;;28.68;23.94;99605.69;4512793;31;34378;-82
2022/06/15 10:27:48;;;;;;;;;;;;;;;28.97;23.62;99604.09;4510736;31;33456;-82
2022/06/15 10:30:22;;;;;;;;;;;;;;;29.26;21.97;99602.47;4499828;31;35182;-82
2022/06/15 10:33:08;;;;;;;;;;;;;;;28.98;24.70;99616.50;4493546;31;34295;-82
2022/06/15 10:35:36;;;;;;;;;;;;;;;29.23;24.36;99597.31;4505842;31;34179;-80
2022/06/15 10:38:09;;;;;;;;;;;;;;;29.39;23.02;99605.28;4505256;31;34212;-80
2022/06/15 10:40:37;;;;;;;;;;;;;;;30.08;21.58;99598.56;4491728;31;34105;-82
2022/06/15 10:43:14;;;;;;;;;;;;;;;29.64;21.87;99599.41;4504777;31;34361;-80
2022/06/15 10:45:54;;;;;;;;;;;;;;;28.77;22.48;99594.53;4475974;31;34552;-82
2022/06/15 10:48:23;;;;;;;;;;;;;;;30.41;21.51;99591.16;4489046;31;33014;-81
2022/06/15 10:50:57;;;;;;;;;;;;;;;31.24;20.27;99588.56;4495998;31;34015;-81
2022/06/15 10:53:45;;;;;;;;;;;;;;;30.40;20.98;99585.91;4510781;31;34072;-80
2022/06/15 11:02:24;;;;;;;;;;;;;;;28.46;23.05;99582.00;4497955;31;35044;-80
2022/06/15 11:04:54;;;;;;;;;;;;;;;29.83;20.70;99586.69;4493003;31;33157;-80
2022/06/15 11:07:22;;;;;;;;;;;;;;;29.79;20.89;99579.81;4488679;31;34505;-81
2022/06/15 11:09:54;;;;;;;;;;;;;;;30.23;23.04;99570.91;4504881;31;33468;-83
2022/06/15 11:12:22;;;;;;;;;;;;;;;30.53;22.24;99571.69;4502318;31;34126;-82
2022/06/15 11:15:00;;;;;;;;;;;;;;;30.39;21.52;99571.69;4500377;31;35124;-81
2022/06/15 11:20:34;;;;;;;;;;;;;;;30.04;21.98;99566.69;4499651;31;33832;-80
2022/06/15 11:23:16;;;;;;;;;;;;;;;29.55;22.19;99577.62;4478083;31;33387;-80
2022/06/15 11:25:45;;;;;;;;;;;;;;;29.74;21.98;99571.22;4485261;31;34365;-82
2022/06/15 11:28:16;;;;;;;;;;;;;;;30.22;21.39;99558.50;4471944;31;33221;-83
2022/06/15 11:30:47;;;;;;;;;;;;;;;29.59;23.75;99562.28;4495352;31;33269;-83
2022/06/15 11:33:33;;;;;;;;;;;;;;;29.83;22.08;99543.91;4497031;31;35085;-83
2022/06/15 11:36:03;;;;;;;;;;;;;;;29.64;25.10;99554.00;4493269;31;33988;-84
2022/06/15 11:38:35;;;;;;;;;;;;;;;30.32;23.18;99548.94;4496640;31;35010;-81
2022/06/15 11:41:15;;;;;;;;;;;;;;;31.00;21.33;99551.72;4486782;31;33371;-82
2022/06/15 11:43:44;;;;;;;;;;;;;;;31.36;22.33;99552.94;4500818;31;33824;-82
2022/06/15 11:46:18;;;;;;;;;;;;;;;29.47;22.65;99554.94;4473720;31;33177;-82
2022/06/15 11:48:48;;;;;;;;;;;;;;;30.54;22.80;99551.13;4506899;31;34065;-83
2022/06/15 11:51:34;;;;;;;;;;;;;;;30.98;23.91;99550.09;4514021;31;33216;-83
2022/06/15 11:54:07;;;;;;;;;;;;;;;31.41;22.37;99540.12;4495872;31;35180;-86
2022/06/15 11:56:39;;;;;;;;;;;;;;;31.48;20.56;99538.75;4500511;31;35100;-82
2022/06/15 11:59:16;;;;;;;;;;;;;;;31.76;22.15;99544.91;4502346;31;35360;-81
2022/06/15 12:02:12;;;;;;;;;;;;;;;31.51;20.88;99543.03;4504158;31;33733;-82
2022/06/15 12:04:44;;;;;;;;;;;;;;;31.08;22.32;99543.19;4516813;31;34023;-83
2022/06/15 12:07:14;;;;;;;;;;;;;;;31.55;20.73;99541.00;4516187;31;35260;-81
2022/06/15 12:09:44;;;;;;;;;;;;;;;31.74;20.71;99531.56;4497738;31;34268;-81
2022/06/15 12:15:41;;;;;;;;;;;;;;;30.90;21.11;99531.00;4491875;31;35107;-83
2022/06/15 12:18:17;;;;;;;;;;;;;;;32.20;20.57;99533.78;4440427;31;35930;-82
2022/06/15 12:21:06;;;;;;;;;;;;;;;32.12;19.40;99530.75;4483811;32;34970;-84
2022/06/15 12:23:59;;;;;;;;;;;;;;;31.66;21.74;99533.94;4482222;32;33358;-83
2022/06/15 12:26:39;;;;;;;;;;;;;;;30.07;22.07;99536.19;4483709;32;34134;-83
2022/06/15 12:29:10;;;;;;;;;;;;;;;31.24;20.60;99521.59;4495847;31;33815;-83
2022/06/15 12:31:51;;;;;;;;;;;;;;;31.24;20.86;99518.91;4497745;31;34320;-83
2022/06/15 12:34:37;;;;;;;;;;;;;;;31.59;21.50;99519.22;4499443;31;32961;-81
2022/06/15 12:37:07;;;;;;;;;;;;;;;31.89;20.93;99524.34;4498750;31;34131;-82
2022/06/15 12:40:10;;;;;;;;;;;;;;;31.76;21.77;99520.78;4498309;31;34009;-82
2022/06/15 12:42:38;;;;;;;;;;;;;;;32.26;21.03;99519.06;4497674;31;34211;-82
2022/06/15 12:45:14;;;;;;;;;;;;;;;31.84;20.67;99515.72;4497918;31;33190;-82
2022/06/15 12:47:42;;;;;;;;;;;;;;;32.14;20.56;99512.75;4488759;31;34849;-83
2022/06/15 12:50:23;;;;;;;;;;;;;;;32.76;20.71;99517.25;4485386;31;35280;-83
2022/06/15 12:52:56;;;;;;;;;;;;;;;31.01;20.76;99504.38;4498756;31;34090;-81
2022/06/15 12:55:42;;;;;;;;;;;;;;;30.76;22.41;99513.16;4499075;31;33419;-82
2022/06/15 12:58:19;;;;;;;;;;;;;;;31.91;22.02;99511.69;4498817;31;34285;-84
2022/06/15 13:01:02;;;;;;;;;;;;;;;32.46;20.45;99509.59;4499091;31;34470;-82
2022/06/15 13:03:34;;;;;;;;;;;;;;;32.59;21.08;99507.75;4498793;31;34441;-83
2022/06/15 13:06:18;;;;;;;;;;;;;;;32.81;18.80;99503.50;4497754;31;32647;-83
2022/06/15 13:08:46;;;;;;;;;;;;;;;29.84;21.30;99502.00;4498191;31;34713;-82
2022/06/15 13:11:16;;;;;;;;;;;;;;;30.34;21.48;99506.03;4499246;31;34352;-83
2022/06/15 13:13:48;;;;;;;;;;;;;;;30.55;21.58;99504.69;4497614;31;35041;-82
2022/06/15 13:16:30;;;;;;;;;;;;;;;31.38;22.76;99501.97;4497487;31;33225;-84
2022/06/15 13:18:57;;;;;;;;;;;;;;;31.82;20.96;99498.87;4497731;31;34608;-84
2022/06/15 13:21:29;;;;;;;;;;;;;;;30.42;21.62;99495.72;4498733;31;34565;-83
2022/06/15 13:24:01;;;;;;;;;;;;;;;29.85;21.95;99499.22;4487838;31;34213;-83
2022/06/15 13:26:37;;;;;;;;;;;;;;;30.63;21.87;99496.16;4505608;31;33436;-81
2022/06/15 13:29:11;;;;;;;;;;;;;;;30.17;21.64;99483.06;4514864;31;34119;-82